Time;durP1;ratioP1;P1;durP2;ratioP2;P2;SDS_P1;SDS_P2;PMS_P1;PMS_P2;Temp;Humidity;BMP_temperature;BMP_pressure;BME280_temperature;BME280_humidity;BME280_pressure;Samples;Min_cycle;Max_cycle;Signal;HPM_P1;HPM_P2
2022/05/03 00:00:23;;;;;;;4.78;4.45;;;;;;;-141.48;100.00;69781.59;5235470;28;20031;-83
2022/05/03 00:03:18;;;;;;;5.43;4.93;;;;;;;-141.48;100.00;69781.59;5235331;28;20482;-83
2022/05/03 00:05:57;;;;;;;5.53;5.15;;;;;;;-141.48;100.00;69781.59;5234937;28;20025;-82
2022/05/03 00:08:44;;;;;;;4.33;4.13;;;;;;;-141.48;100.00;69781.59;5233405;28;20029;-83
2022/05/03 00:11:39;;;;;;;4.85;4.30;;;;;;;-141.48;100.00;69781.59;5217346;28;20482;-83
2022/05/03 00:14:17;;;;;;;4.57;4.38;;;;;;;-141.48;100.00;69781.59;5234430;28;20035;-83
2022/05/03 00:16:49;;;;;;;4.57;4.18;;;;;;;-141.48;100.00;69781.59;5234845;28;20090;-83
2022/05/03 00:19:19;;;;;;;5.07;4.78;;;;;;;-141.48;100.00;69781.59;5235007;28;20021;-82
2022/05/03 00:21:51;;;;;;;3.90;3.70;;;;;;;-141.48;100.00;69781.59;5217466;28;20021;-83
2022/05/03 00:24:22;;;;;;;5.50;5.13;;;;;;;-141.48;100.00;69781.59;5217139;28;20092;-83
2022/05/03 00:26:53;;;;;;;4.72;4.50;;;;;;;-141.48;100.00;69781.59;5218192;28;20025;-83
2022/05/03 00:29:24;;;;;;;4.40;4.20;;;;;;;-141.48;100.00;69781.59;5233499;28;20031;-82
2022/05/03 00:31:57;;;;;;;4.50;4.20;;;;;;;-141.48;100.00;69781.59;5235697;28;20048;-83
2022/05/03 00:34:28;;;;;;;6.53;6.03;;;;;;;-141.48;100.00;69781.59;5234835;28;20051;-82
2022/05/03 00:36:59;;;;;;;4.50;4.22;;;;;;;-141.48;100.00;69781.59;5234711;28;20099;-82
2022/05/03 00:39:30;;;;;;;4.82;4.57;;;;;;;-141.48;100.00;69781.59;5235054;28;20032;-83
2022/05/03 00:42:22;;;;;;;5.00;4.63;;;;;;;-141.48;100.00;69781.59;5235142;28;20382;-83
2022/05/03 00:45:15;;;;;;;5.03;4.70;;;;;;;-141.48;100.00;69781.59;5234582;28;20032;-82
2022/05/03 00:48:06;;;;;;;5.93;5.60;;;;;;;-141.48;100.00;69781.59;5233685;28;20052;-83
2022/05/03 00:50:45;;;;;;;4.95;4.72;;;;;;;-141.48;100.00;69781.59;5234520;28;20064;-83
2022/05/03 00:53:32;;;;;;;6.70;6.10;;;;;;;-141.48;100.00;69781.59;5234644;28;20092;-83
2022/05/03 00:56:24;;;;;;;5.05;4.85;;;;;;;-141.48;100.00;69781.59;5235026;28;20032;-83
2022/05/03 00:58:57;;;;;;;5.82;5.43;;;;;;;-141.48;100.00;69781.59;5234889;28;20044;-82
2022/05/03 01:02:02;;;;;;;6.15;5.75;;;;;;;-141.48;100.00;69781.59;5219740;28;20032;-82
2022/05/03 01:05:09;;;;;;;5.32;5.07;;;;;;;-141.48;100.00;69781.59;5238455;28;20017;-82
2022/05/03 01:08:04;;;;;;;6.10;5.65;;;;;;;-141.48;100.00;69781.59;5239147;28;20471;-81
2022/05/03 01:10:38;;;;;;;6.10;5.70;;;;;;;-141.48;100.00;69781.59;5230908;28;20033;-81
2022/05/03 01:13:29;;;;;;;4.97;4.78;;;;;;;-141.48;100.00;69781.59;5237496;28;20028;-82
2022/05/03 01:16:11;;;;;;;6.25;5.82;;;;;;;-141.48;100.00;69781.59;5236991;28;20509;-82
2022/05/03 01:18:56;;;;;;;7.30;6.60;;;;;;;-141.48;100.00;69781.59;5220618;28;20029;-82
2022/05/03 01:21:56;;;;;;;7.00;6.47;;;;;;;-141.48;100.00;69781.59;5221211;28;20103;-81
2022/05/03 01:24:41;;;;;;;5.57;5.07;;;;;;;-141.48;100.00;69781.59;5238037;28;20032;-82
2022/05/03 01:27:29;;;;;;;8.70;8.07;;;;;;;-141.48;100.00;69781.59;5238564;28;20131;-82
2022/05/03 01:30:02;;;;;;;6.57;6.18;;;;;;;-141.48;100.00;69781.59;5238725;28;20027;-82
2022/05/03 01:32:36;;;;;;;6.35;5.95;;;;;;;-141.48;100.00;69781.59;5240074;28;20021;-81
2022/05/03 01:35:07;;;;;;;5.97;5.63;;;;;;;-141.48;100.00;69781.59;5221693;28;20032;-81
2022/05/03 01:38:03;;;;;;;7.38;6.97;;;;;;;-141.48;100.00;69781.59;5240949;28;20025;-81
2022/05/03 01:41:08;;;;;;;7.53;7.00;;;;;;;-141.48;100.00;69781.59;5238975;28;20029;-82
2022/05/03 01:43:58;;;;;;;6.80;6.43;;;;;;;-141.48;100.00;69781.59;5238466;28;20056;-82
2022/05/03 01:46:34;;;;;;;6.20;5.80;;;;;;;-141.48;100.00;69781.59;5237652;28;20017;-82
2022/05/03 01:53:06;;;;;;;8.07;7.43;;;;;;;-141.48;100.00;69781.59;5173152;28;20038;-82
2022/05/03 01:55:40;;;;;;;6.85;6.45;;;;;;;-141.48;100.00;69781.59;5236325;28;20032;-81
2022/05/03 01:58:35;;;;;;;8.13;7.50;;;;;;;-141.48;100.00;69781.59;5236247;28;20025;-82
2022/05/03 02:01:27;;;;;;;8.18;7.60;;;;;;;-141.48;100.00;69781.59;5234381;28;20514;-81
2022/05/03 02:04:09;;;;;;;7.97;7.47;;;;;;;-141.48;100.00;69781.59;5235732;28;20056;-82
2022/05/03 02:06:55;;;;;;;7.65;7.15;;;;;;;-141.48;100.00;69781.59;5235852;28;20493;-82
2022/05/03 02:09:45;;;;;;;8.13;7.63;;;;;;;-141.48;100.00;69781.59;5235839;28;20036;-82
2022/05/03 02:12:18;;;;;;;8.82;8.13;;;;;;;-141.48;100.00;69781.59;5217575;28;20487;-81
2022/05/03 02:14:53;;;;;;;7.40;6.95;;;;;;;-141.48;100.00;69781.59;5235444;28;20442;-82
2022/05/03 02:17:48;;;;;;;7.35;6.85;;;;;;;-141.48;100.00;69781.59;5217847;28;20024;-81
2022/05/03 02:20:37;;;;;;;11.68;7.50;;;;;;;-141.48;100.00;69781.59;5233652;28;20715;-81
2022/05/03 02:23:34;;;;;;;10.23;8.98;;;;;;;-141.48;100.00;69781.59;5234746;28;20017;-82
2022/05/03 02:26:13;;;;;;;8.15;7.55;;;;;;;-141.48;100.00;69781.59;5234155;28;20029;-82
2022/05/03 02:29:15;;;;;;;9.93;8.93;;;;;;;-141.48;100.00;69781.59;5234483;28;20021;-81
2022/05/03 02:32:01;;;;;;;7.70;7.20;;;;;;;-141.48;100.00;69781.59;5233316;28;20036;-82
2022/05/03 02:34:42;;;;;;;9.15;7.65;;;;;;;-141.48;100.00;69781.59;5234843;28;20048;-82
2022/05/03 02:37:23;;;;;;;8.77;8.02;;;;;;;-141.48;100.00;69781.59;5236655;28;20391;-82
2022/05/03 02:40:02;;;;;;;9.52;8.80;;;;;;;-141.48;100.00;69781.59;5237083;28;20017;-82
2022/05/03 02:42:34;;;;;;;8.55;7.95;;;;;;;-141.48;100.00;69781.59;5219090;28;20028;-82
2022/05/03 02:45:07;;;;;;;8.68;7.18;;;;;;;-141.48;100.00;69781.59;5236890;28;20032;-83
2022/05/03 02:47:43;;;;;;;8.45;7.85;;;;;;;-141.48;100.00;69781.59;5237309;28;20052;-82
2022/05/03 02:50:42;;;;;;;8.75;7.93;;;;;;;-141.48;100.00;69781.59;5221049;23;20399;-77
2022/05/03 02:53:20;;;;;;;8.80;8.02;;;;;;;-141.48;100.00;69781.59;5202645;28;20493;-77
2022/05/03 02:55:54;;;;;;;10.82;9.88;;;;;;;-141.48;100.00;69781.59;5186972;28;20026;-77
2022/05/03 02:58:41;;;;;;;8.85;8.25;;;;;;;-141.48;100.00;69781.59;5191594;28;20045;-77
2022/05/03 03:01:49;;;;;;;8.10;7.60;;;;;;;-141.48;100.00;69781.59;5186602;28;20053;-77
2022/05/03 03:04:46;;;;;;;9.85;9.00;;;;;;;-141.48;100.00;69781.59;5186879;28;20555;-78
2022/05/03 03:07:18;;;;;;;8.52;8.00;;;;;;;-141.48;100.00;69781.59;5188011;28;20030;-77
2022/05/03 03:09:56;;;;;;;9.52;8.73;;;;;;;-141.48;100.00;69781.59;5185112;28;20367;-76
2022/05/03 03:12:48;;;;;;;8.55;7.95;;;;;;;-141.48;100.00;69781.59;5186499;28;20033;-77
2022/05/03 03:15:24;;;;;;;9.55;8.85;;;;;;;-141.48;100.00;69781.59;5192508;28;20030;-78
2022/05/03 03:17:59;;;;;;;9.90;9.30;;;;;;;-141.48;100.00;69781.59;5192904;28;20030;-78
2022/05/03 03:20:35;;;;;;;9.20;8.50;;;;;;;-141.48;100.00;69781.59;5190998;28;20021;-78
2022/05/03 03:23:07;;;;;;;10.05;9.35;;;;;;;-141.48;100.00;69781.59;5207301;28;20056;-78
2022/05/03 03:25:38;;;;;;;9.60;8.90;;;;;;;-141.48;100.00;69781.59;5191878;28;20036;-78
2022/05/03 03:28:12;;;;;;;9.60;8.85;;;;;;;-141.48;100.00;69781.59;5191981;28;20032;-78
2022/05/03 03:34:15;;;;;;;10.80;10.10;;;;;;;-141.48;100.00;69781.59;5192886;28;20048;-78
2022/05/03 03:36:49;;;;;;;11.10;10.25;;;;;;;-141.48;100.00;69781.59;5191079;28;20036;-77
2022/05/03 03:43:15;;;;;;;10.63;9.90;;;;;;;-141.48;100.00;69781.59;5203422;28;20057;-78
2022/05/03 03:45:45;;;;;;;9.45;8.55;;;;;;;-141.48;100.00;69781.59;5189959;28;20048;-78
2022/05/03 03:48:16;;;;;;;10.80;9.70;;;;;;;-141.48;100.00;69781.59;5190263;28;20423;-78
2022/05/03 03:50:48;;;;;;;8.20;7.60;;;;;;;-141.48;100.00;69781.59;5190303;28;20034;-78
2022/05/03 03:53:19;;;;;;;10.77;9.68;;;;;;;-141.48;100.00;69781.59;5190979;28;20030;-78
2022/05/03 03:55:49;;;;;;;10.63;9.30;;;;;;;-141.48;100.00;69781.59;5189078;28;20029;-78
2022/05/03 03:58:20;;;;;;;10.07;9.43;;;;;;;-141.48;100.00;69781.59;5204443;28;20029;-80
2022/05/03 04:00:50;;;;;;;9.15;8.60;;;;;;;-141.48;100.00;69781.59;5191974;28;20014;-78
2022/05/03 04:03:21;;;;;;;10.02;9.23;;;;;;;-141.48;100.00;69781.59;5191982;28;20064;-78
2022/05/03 04:05:51;;;;;;;11.20;10.43;;;;;;;-141.48;100.00;69781.59;5192809;28;20024;-78
2022/05/03 04:08:22;;;;;;;10.40;9.70;;;;;;;-141.48;100.00;69781.59;5190111;28;20373;-78
2022/05/03 04:10:53;;;;;;;9.68;8.85;;;;;;;-141.48;100.00;69781.59;5191243;28;20049;-80
2022/05/03 04:13:23;;;;;;;12.95;10.57;;;;;;;-141.48;100.00;69781.59;5192924;28;20026;-77
2022/05/03 04:15:54;;;;;;;10.82;10.13;;;;;;;-141.48;100.00;69781.59;5200218;28;20025;-77
2022/05/03 04:18:44;;;;;;;9.70;9.13;;;;;;;-141.48;100.00;69781.59;5188625;28;20033;-78
2022/05/03 04:21:16;;;;;;;11.57;10.65;;;;;;;-141.48;100.00;69781.59;5191212;28;20025;-79
2022/05/03 04:23:46;;;;;;;11.20;10.32;;;;;;;-141.48;100.00;69781.59;5194458;28;20431;-79
2022/05/03 04:26:17;;;;;;;11.88;11.02;;;;;;;-141.48;100.00;69781.59;5192504;28;20052;-79
2022/05/03 04:28:47;;;;;;;11.68;10.68;;;;;;;-141.48;100.00;69781.59;5194478;28;20030;-79
2022/05/03 04:32:10;;;;;;;11.13;10.05;;;;;;;-141.48;100.00;69781.59;5189915;28;20030;-77
2022/05/03 04:34:41;;;;;;;11.27;10.30;;;;;;;-141.48;100.00;69781.59;5200523;28;20121;-79
2022/05/03 04:37:12;;;;;;;10.63;9.65;;;;;;;-141.48;100.00;69781.59;5186102;28;20105;-80
2022/05/03 04:39:42;;;;;;;13.43;11.98;;;;;;;-141.48;100.00;69781.59;5190992;28;20034;-79
2022/05/03 04:42:13;;;;;;;11.10;10.10;;;;;;;-141.48;100.00;69781.59;5194045;28;20018;-78
2022/05/03 04:44:44;;;;;;;11.80;10.90;;;;;;;-141.48;100.00;69781.59;5192874;28;20021;-79
2022/05/03 04:47:14;;;;;;;10.60;9.65;;;;;;;-141.48;100.00;69781.59;5205088;28;20108;-79
2022/05/03 04:49:44;;;;;;;12.13;11.23;;;;;;;-141.48;100.00;69781.59;5215717;28;20030;-79
2022/05/03 04:52:15;;;;;;;10.40;9.52;;;;;;;-141.48;100.00;69781.59;5230831;28;20120;-79
2022/05/03 04:54:45;;;;;;;11.00;10.07;;;;;;;-141.48;100.00;69781.59;5230518;28;20026;-79
2022/05/03 04:57:16;;;;;;;10.93;10.05;;;;;;;-141.48;100.00;69781.59;5219377;28;20113;-78
2022/05/03 04:59:46;;;;;;;9.98;9.23;;;;;;;-141.48;100.00;69781.59;5225847;28;20021;-79
2022/05/03 05:02:17;;;;;;;10.55;9.77;;;;;;;-141.48;100.00;69781.59;5224275;28;20037;-79
2022/05/03 05:04:47;;;;;;;10.43;9.15;;;;;;;-141.48;100.00;69781.59;5224206;28;20144;-78
2022/05/03 05:07:17;;;;;;;10.52;9.80;;;;;;;-141.48;100.00;69781.59;5241171;28;20030;-78
2022/05/03 05:12:37;;;;;;;11.95;10.43;;;;;;;-141.48;100.00;69781.59;5230547;23;20076;-56
2022/05/03 05:15:08;;;;;;;10.40;9.50;;;;;;;-141.48;100.00;69781.59;5202245;28;20018;-56
2022/05/03 05:17:38;;;;;;;9.85;9.00;;;;;;;-141.48;100.00;69781.59;5202799;28;20055;-55
2022/05/03 05:20:09;;;;;;;11.18;10.40;;;;;;;-141.48;100.00;69781.59;5219426;28;20393;-57
2022/05/03 05:22:39;;;;;;;10.88;9.88;;;;;;;-141.48;100.00;69781.59;5219497;28;20030;-57
2022/05/03 05:25:10;;;;;;;9.77;9.07;;;;;;;-141.48;100.00;69781.59;5209513;28;20021;-57
2022/05/03 05:27:41;;;;;;;12.77;10.90;;;;;;;-141.48;100.00;69781.59;5219824;28;20021;-55
2022/05/03 05:30:12;;;;;;;9.77;9.10;;;;;;;-141.48;100.00;69781.59;5218961;28;20465;-58
2022/05/03 05:32:42;;;;;;;11.07;9.90;;;;;;;-141.48;100.00;69781.59;5218962;28;20068;-57
2022/05/03 05:35:16;;;;;;;16.50;9.88;;;;;;;-141.48;100.00;69781.59;5218959;28;20057;-56
2022/05/03 05:37:47;;;;;;;8.95;8.23;;;;;;;-141.48;100.00;69781.59;5219792;28;20025;-58
2022/05/03 05:47:07;;;;;;;10.80;9.90;;;;;;;-141.48;100.00;69781.59;5182277;28;20045;-58
2022/05/03 05:49:37;;;;;;;11.70;10.80;;;;;;;-141.48;100.00;69781.59;5169026;28;20030;-55
2022/05/03 05:54:57;;;;;;;10.18;8.63;;;;;;;-141.48;100.00;69781.59;5167692;28;20069;-58
2022/05/03 05:57:27;;;;;;;10.73;9.80;;;;;;;-141.48;100.00;69781.59;5149933;28;20026;-57
2022/05/03 05:59:58;;;;;;;11.80;10.88;;;;;;;-141.48;100.00;69781.59;5149933;28;20065;-58
2022/05/03 06:02:28;;;;;;;11.00;9.73;;;;;;;-141.48;100.00;69781.59;5165965;28;20026;-57
2022/05/03 06:04:59;;;;;;;7.70;7.15;;;;;;;-141.48;100.00;69781.59;5165962;28;20030;-56
2022/05/03 06:07:29;;;;;;;9.90;9.20;;;;;;;-141.48;100.00;69781.59;5166621;28;20026;-55
2022/05/03 06:10:00;;;;;;;10.35;9.65;;;;;;;-141.48;100.00;69781.59;5166364;28;20101;-55
2022/05/03 06:12:33;;;;;;;9.15;8.45;;;;;;;-141.48;100.00;69781.59;5150509;28;20165;-54
2022/05/03 06:15:04;;;;;;;10.05;9.15;;;;;;;-141.48;100.00;69781.59;5149489;28;20053;-57
2022/05/03 06:17:35;;;;;;;9.30;8.60;;;;;;;-141.48;100.00;69781.59;5164952;28;20533;-56
2022/05/03 06:20:07;;;;;;;8.50;7.45;;;;;;;-141.48;100.00;69781.59;5149352;28;20117;-56
2022/05/03 06:22:39;;;;;;;9.60;8.90;;;;;;;-141.48;100.00;69781.59;5148876;28;20048;-56
2022/05/03 06:25:10;;;;;;;11.50;8.68;;;;;;;-141.48;100.00;69781.59;5148770;28;20034;-55
2022/05/03 06:27:40;;;;;;;6.82;6.43;;;;;;;-141.48;100.00;69781.59;5165451;28;20076;-55
2022/05/03 06:30:11;;;;;;;9.05;7.57;;;;;;;-141.48;100.00;69781.59;5148876;28;20026;-58
2022/05/03 06:32:43;;;;;;;9.23;8.52;;;;;;;-141.48;100.00;69781.59;5149039;28;20022;-55
2022/05/03 06:35:14;;;;;;;7.35;6.65;;;;;;;-141.48;100.00;69781.59;5148300;28;20030;-56
2022/05/03 06:37:45;;;;;;;8.10;7.70;;;;;;;-141.48;100.00;69781.59;5148864;28;20027;-55
2022/05/03 06:40:15;;;;;;;9.48;8.00;;;;;;;-141.48;100.00;69781.59;5164767;28;20034;-57
2022/05/03 06:42:46;;;;;;;8.43;7.82;;;;;;;-141.48;100.00;69781.59;5148787;28;20108;-54
2022/05/03 06:45:17;;;;;;;8.45;7.65;;;;;;;-141.48;100.00;69781.59;5164484;28;20396;-55
2022/05/03 06:47:50;;;;;;;8.95;8.30;;;;;;;-141.48;100.00;69781.59;5148378;28;20034;-57
2022/05/03 06:50:20;;;;;;;7.43;6.93;;;;;;;-141.48;100.00;69781.59;5164581;28;20105;-55
2022/05/03 06:52:54;;;;;;;13.05;6.07;;;;;;;-141.48;100.00;69781.59;5148536;28;20117;-56
2022/05/03 06:55:24;;;;;;;8.00;7.38;;;;;;;-141.48;100.00;69781.59;5147895;28;20019;-57
2022/05/03 06:57:55;;;;;;;6.55;6.10;;;;;;;-141.48;100.00;69781.59;5147919;28;20085;-56
2022/05/03 07:00:31;;;;;;;8.18;7.53;;;;;;;-141.48;100.00;69781.59;5164718;28;20057;-56
2022/05/03 07:03:02;;;;;;;5.90;5.40;;;;;;;-141.48;100.00;69781.59;5164347;28;20030;-57
2022/05/03 07:05:32;;;;;;;6.03;5.55;;;;;;;-141.48;100.00;69781.59;5164067;28;20379;-57
2022/05/03 07:08:03;;;;;;;6.30;5.80;;;;;;;-141.48;100.00;69781.59;5164347;28;20038;-58
2022/05/03 07:10:33;;;;;;;6.50;6.15;;;;;;;-141.48;100.00;69781.59;5147837;28;20034;-57
2022/05/03 07:13:04;;;;;;;7.57;7.07;;;;;;;-141.48;100.00;69781.59;5147875;28;20050;-57
2022/05/03 07:15:34;;;;;;;4.90;4.55;;;;;;;-141.48;100.00;69781.59;5163502;28;20027;-58
2022/05/03 07:23:43;;;;;;;8.15;5.63;;;;;;;-141.48;100.00;69781.59;5165264;28;20153;-59
2022/05/03 07:26:14;;;;;;;5.10;4.78;;;;;;;-141.48;100.00;69781.59;5147880;28;20015;-58
2022/05/03 07:28:49;;;;;;;7.03;5.25;;;;;;;-141.48;100.00;69781.59;5163870;28;20402;-56
2022/05/03 07:31:20;;;;;;;4.40;4.00;;;;;;;-141.48;100.00;69781.59;5163860;28;20031;-59
2022/05/03 07:33:50;;;;;;;4.75;4.35;;;;;;;-141.48;100.00;69781.59;5147328;28;20053;-57
2022/05/03 07:36:21;;;;;;;4.65;3.85;;;;;;;-141.48;100.00;69781.59;5163691;28;20050;-58
2022/05/03 07:38:52;;;;;;;4.55;4.07;;;;;;;-141.48;100.00;69781.59;5147624;28;20050;-55
2022/05/03 07:42:18;;;;;;;5.18;4.88;;;;;;;-141.48;100.00;69781.59;5147522;28;20113;-58
2022/05/03 07:44:49;;;;;;;4.55;4.05;;;;;;;-141.48;100.00;69781.59;5162997;28;20026;-57
2022/05/03 07:47:19;;;;;;;3.47;3.28;;;;;;;-141.48;100.00;69781.59;5131352;28;20081;-58
2022/05/03 07:49:50;;;;;;;5.03;4.63;;;;;;;-141.48;100.00;69781.59;5147345;28;20050;-58
2022/05/03 07:52:21;;;;;;;4.50;4.10;;;;;;;-141.48;100.00;69781.59;5147461;28;20324;-56
2022/05/03 07:54:51;;;;;;;6.07;5.68;;;;;;;-141.48;100.00;69781.59;5163216;28;20486;-56
2022/05/03 07:57:23;;;;;;;5.93;5.43;;;;;;;-141.48;100.00;69781.59;5162977;28;20042;-57
2022/05/03 07:59:54;;;;;;;4.68;4.28;;;;;;;-141.48;100.00;69781.59;5163257;28;20026;-55
2022/05/03 08:02:26;;;;;;;4.97;4.68;;;;;;;-141.48;100.00;69781.59;5163218;28;20041;-57
2022/05/03 08:04:56;;;;;;;4.72;4.47;;;;;;;-141.48;100.00;69781.59;5163984;28;20082;-59
2022/05/03 08:07:27;;;;;;;4.57;4.18;;;;;;;-141.48;100.00;69781.59;5163041;28;20038;-57
2022/05/03 08:09:57;;;;;;;6.63;6.22;;;;;;;-141.48;100.00;69781.59;5162269;28;20061;-58
2022/05/03 08:12:28;;;;;;;5.47;5.00;;;;;;;-141.48;100.00;69781.59;5146934;28;20045;-58
2022/05/03 08:14:58;;;;;;;6.32;5.93;;;;;;;-141.48;100.00;69781.59;5170111;28;20029;-58
2022/05/03 08:17:29;;;;;;;9.52;6.97;;;;;;;-141.48;100.00;69781.59;5162910;28;20022;-57
2022/05/03 08:19:59;;;;;;;6.30;5.68;;;;;;;-141.48;100.00;69781.59;5162414;28;20372;-57
2022/05/03 08:22:33;;;;;;;6.18;5.57;;;;;;;-141.48;100.00;69781.59;5162652;28;20613;-58
2022/05/03 08:25:04;;;;;;;6.05;5.45;;;;;;;-141.48;100.00;69781.59;5162312;28;20456;-58
2022/05/03 08:27:38;;;;;;;5.68;5.28;;;;;;;-141.48;100.00;69781.59;5146476;28;20018;-58
2022/05/03 08:30:09;;;;;;;7.40;6.57;;;;;;;-141.48;100.00;69781.59;5146742;28;20281;-58
2022/05/03 08:32:40;;;;;;;8.05;6.00;;;;;;;-141.48;100.00;69781.59;5146208;28;20026;-59
2022/05/03 08:35:10;;;;;;;7.18;6.60;;;;;;;-141.48;100.00;69781.59;5161995;28;20026;-58
2022/05/03 08:43:24;;;;;;;6.72;5.78;;;;;;;-141.48;100.00;69781.59;5163723;28;20045;-58
2022/05/03 08:45:55;;;;;;;5.70;5.32;;;;;;;-141.48;100.00;69781.59;5162094;28;20030;-59
2022/05/03 08:51:03;;;;;;;5.70;5.30;;;;;;;-141.48;100.00;69781.59;5166230;28;20058;-63
2022/05/03 08:53:35;;;;;;;6.60;5.95;;;;;;;-141.48;100.00;69781.59;5146918;28;20076;-60
2022/05/03 08:56:06;;;;;;;8.13;6.05;;;;;;;-141.48;100.00;69781.59;5163374;28;20027;-61
2022/05/03 08:58:38;;;;;;;7.25;5.45;;;;;;;-141.48;100.00;69781.59;5146661;28;20034;-59
2022/05/03 09:01:09;;;;;;;6.55;6.03;;;;;;;-141.48;100.00;69781.59;5162649;28;20544;-59
2022/05/03 09:03:40;;;;;;;6.22;5.82;;;;;;;-141.48;100.00;69781.59;5162577;28;20478;-59
2022/05/03 09:06:11;;;;;;;8.38;5.13;;;;;;;-141.48;100.00;69781.59;5162579;28;20022;-61
2022/05/03 09:08:41;;;;;;;6.13;5.63;;;;;;;-141.48;100.00;69781.59;5147006;28;20110;-62
2022/05/03 09:11:14;;;;;;;5.72;5.35;;;;;;;-141.48;100.00;69781.59;5163021;28;20027;-62
2022/05/03 09:13:46;;;;;;;5.45;5.05;;;;;;;-141.48;100.00;69781.59;5162370;28;20398;-62
2022/05/03 09:16:18;;;;;;;6.03;5.53;;;;;;;-141.48;100.00;69781.59;5162465;28;20121;-61
2022/05/03 09:18:49;;;;;;;5.63;5.22;;;;;;;-141.48;100.00;69781.59;5162548;28;20474;-61
2022/05/03 09:24:14;;;;;;;4.70;4.40;;;;;;;-141.48;100.00;69781.59;5167172;28;20315;-60
2022/05/03 09:26:44;;;;;;;6.60;5.82;;;;;;;-141.48;100.00;69781.59;5166142;28;20058;-62
2022/05/03 09:29:15;;;;;;;6.15;5.55;;;;;;;-141.48;100.00;69781.59;5166061;28;20406;-63
2022/05/03 09:31:48;;;;;;;7.63;5.47;;;;;;;-141.48;100.00;69781.59;5150275;28;20402;-61
2022/05/03 09:34:26;;;;;;;6.93;5.53;;;;;;;-141.48;100.00;69781.59;5149692;28;20375;-62
2022/05/03 09:37:09;;;;;;;6.93;6.30;;;;;;;-141.48;100.00;69781.59;5149554;28;20026;-65
2022/05/03 09:39:47;;;;;;;9.60;6.07;;;;;;;-141.48;100.00;69781.59;5166121;28;20034;-61
2022/05/03 09:42:19;;;;;;;5.40;4.90;;;;;;;-141.48;100.00;69781.59;5149944;28;20029;-64
2022/05/03 09:44:52;;;;;;;6.25;4.47;;;;;;;-141.48;100.00;69781.59;5165981;28;20030;-63
2022/05/03 09:47:34;;;;;;;5.70;5.30;;;;;;;-141.48;100.00;69781.59;5165663;28;20039;-61
2022/05/03 09:50:05;;;;;;;6.88;6.28;;;;;;;-141.48;100.00;69781.59;5149551;28;20447;-62
2022/05/03 09:52:38;;;;;;;6.22;5.78;;;;;;;-141.48;100.00;69781.59;5149790;28;20062;-60
2022/05/03 09:55:11;;;;;;;6.63;6.07;;;;;;;-141.48;100.00;69781.59;5149439;28;20095;-63
2022/05/03 09:57:44;;;;;;;6.60;6.05;;;;;;;-141.48;100.00;69781.59;5165617;28;20490;-63
2022/05/03 10:00:17;;;;;;;5.65;5.25;;;;;;;-141.48;100.00;69781.59;5165555;28;20030;-63
2022/05/03 10:02:48;;;;;;;7.07;6.43;;;;;;;-141.48;100.00;69781.59;5149731;28;20026;-62
2022/05/03 10:05:21;;;;;;;8.32;7.72;;;;;;;-141.48;100.00;69781.59;5149385;28;20211;-63
2022/05/03 10:07:55;;;;;;;7.57;6.88;;;;;;;-141.48;100.00;69781.59;5166013;28;20494;-63
2022/05/03 10:10:26;;;;;;;7.78;7.15;;;;;;;-141.48;100.00;69781.59;5149094;28;20113;-61
2022/05/03 10:12:58;;;;;;;7.20;6.60;;;;;;;-141.48;100.00;69781.59;5149476;28;20030;-60
2022/05/03 10:21:27;;;;;;;6.40;5.80;;;;;;;-141.48;100.00;69781.59;5166922;28;20040;-60
2022/05/03 10:24:04;;;;;;;7.30;6.65;;;;;;;-141.48;100.00;69781.59;5148712;28;20104;-62
2022/05/03 10:27:02;;;;;;;7.10;6.53;;;;;;;-141.48;100.00;69781.59;5165108;28;20446;-61
2022/05/03 10:29:36;;;;;;;8.07;5.55;;;;;;;-141.48;100.00;69781.59;5148847;28;20018;-63
2022/05/03 10:32:06;;;;;;;5.07;4.68;;;;;;;-141.48;100.00;69781.59;5165121;28;20057;-63
2022/05/03 10:34:44;;;;;;;4.82;4.53;;;;;;;-141.48;100.00;69781.59;5163683;28;20513;-64
2022/05/03 10:37:18;;;;;;;4.43;4.03;;;;;;;-141.48;100.00;69781.59;5164796;28;20022;-62
2022/05/03 10:39:48;;;;;;;5.10;4.70;;;;;;;-141.48;100.00;69781.59;5164983;28;20030;-63
2022/05/03 10:42:23;;;;;;;5.40;5.00;;;;;;;-141.48;100.00;69781.59;5164871;28;20034;-61
2022/05/03 10:44:53;;;;;;;4.68;4.38;;;;;;;-141.48;100.00;69781.59;5148480;28;20401;-62
2022/05/03 10:47:47;;;;;;;6.63;6.15;;;;;;;-141.48;100.00;69781.59;5165878;28;20029;-62
2022/05/03 10:50:19;;;;;;;8.60;4.95;;;;;;;-141.48;100.00;69781.59;5164454;28;20065;-62
2022/05/03 10:52:55;;;;;;;5.28;4.90;;;;;;;-141.48;100.00;69781.59;5166051;28;20053;-65
2022/05/03 10:55:40;;;;;;;5.07;4.70;;;;;;;-141.48;100.00;69781.59;5164498;28;20034;-61
2022/05/03 10:58:26;;;;;;;3.67;3.47;;;;;;;-141.48;100.00;69781.59;5164522;28;20030;-63
2022/05/03 11:01:21;;;;;;;4.75;4.45;;;;;;;-141.48;100.00;69781.59;5148263;28;20072;-62
2022/05/03 11:03:54;;;;;;;5.97;5.47;;;;;;;-141.48;100.00;69781.59;5156801;28;20121;-68
2022/05/03 11:06:25;;;;;;;6.03;5.55;;;;;;;-141.48;100.00;69781.59;5164017;28;20057;-61
2022/05/03 11:11:44;;;;;;;5.30;4.80;;;;;;;-141.48;100.00;69781.59;5165631;28;20501;-63
2022/05/03 11:14:18;;;;;;;5.25;4.95;;;;;;;-141.48;100.00;69781.59;5164105;28;20030;-63
2022/05/03 11:17:01;;;;;;;4.70;4.45;;;;;;;-141.48;100.00;69781.59;5163703;28;20030;-62
2022/05/03 11:19:34;;;;;;;4.63;4.32;;;;;;;-141.48;100.00;69781.59;5164103;28;20117;-61
2022/05/03 11:22:09;;;;;;;5.47;5.18;;;;;;;-141.48;100.00;69781.59;5148041;28;20191;-64
2022/05/03 11:24:45;;;;;;;5.03;4.72;;;;;;;-141.48;100.00;69781.59;5147578;28;20422;-60
2022/05/03 11:27:17;;;;;;;5.05;4.65;;;;;;;-141.48;100.00;69781.59;5147641;28;20060;-63
2022/05/03 11:29:50;;;;;;;6.68;4.55;;;;;;;-141.48;100.00;69781.59;5148132;28;20022;-64
2022/05/03 11:32:55;;;;;;;5.22;4.82;;;;;;;-141.48;100.00;69781.59;5164088;28;20026;-60
2022/05/03 11:35:29;;;;;;;5.13;4.80;;;;;;;-141.48;100.00;69781.59;5153321;28;20125;-63
2022/05/03 11:38:02;;;;;;;5.00;4.70;;;;;;;-141.48;100.00;69781.59;5148014;28;20037;-60
2022/05/03 11:40:35;;;;;;;6.25;5.82;;;;;;;-141.48;100.00;69781.59;5163839;28;20034;-62
2022/05/03 11:43:09;;;;;;;5.18;4.88;;;;;;;-141.48;100.00;69781.59;5164133;28;20041;-65
2022/05/03 11:45:40;;;;;;;7.43;4.30;;;;;;;-141.48;100.00;69781.59;5146130;28;20022;-60
2022/05/03 11:48:10;;;;;;;8.38;4.85;;;;;;;-141.48;100.00;69781.59;5147892;28;20077;-64
2022/05/03 11:56:29;;;;;;;5.23;4.90;;;;;;;-141.48;100.00;69781.59;5164821;28;20113;-63
2022/05/03 11:58:59;;;;;;;5.70;5.30;;;;;;;-141.48;100.00;69781.59;5147698;28;20689;-62
2022/05/03 12:01:34;;;;;;;5.97;5.47;;;;;;;-141.48;100.00;69781.59;5164873;28;20026;-60
2022/05/03 12:04:05;;;;;;;4.60;4.32;;;;;;;-141.48;100.00;69781.59;5147634;28;20097;-61
2022/05/03 12:06:44;;;;;;;6.53;5.80;;;;;;;-141.48;100.00;69781.59;5147642;28;20030;-62
2022/05/03 12:09:18;;;;;;;8.25;7.53;;;;;;;-141.48;100.00;69781.59;5147908;28;20033;-61
2022/05/03 12:14:45;;;;;;;7.00;6.53;;;;;;;-141.48;100.00;69781.59;5164900;28;20412;-63
2022/05/03 12:17:18;;;;;;;7.57;6.22;;;;;;;-141.48;100.00;69781.59;5163218;28;20023;-66
2022/05/03 12:19:59;;;;;;;9.93;6.68;;;;;;;-141.48;100.00;69781.59;5147383;28;20038;-63
2022/05/03 12:22:30;;;;;;;6.50;5.88;;;;;;;-141.48;100.00;69781.59;5147210;28;20030;-65
2022/05/03 12:25:01;;;;;;;7.82;7.07;;;;;;;-141.48;100.00;69781.59;5163134;28;20553;-61
2022/05/03 12:27:31;;;;;;;5.28;4.97;;;;;;;-141.48;100.00;69781.59;5147343;28;20284;-61
2022/05/03 12:30:10;;;;;;;6.93;6.40;;;;;;;-141.48;100.00;69781.59;5163615;28;20088;-63
2022/05/03 12:32:40;;;;;;;7.93;7.32;;;;;;;-141.48;100.00;69781.59;5162970;28;20030;-61
2022/05/03 12:35:11;;;;;;;5.55;5.05;;;;;;;-141.48;100.00;69781.59;5146695;28;20034;-64
2022/05/03 12:37:51;;;;;;;6.05;5.60;;;;;;;-141.48;100.00;69781.59;5146759;28;20033;-63
2022/05/03 12:40:26;;;;;;;8.25;7.45;;;;;;;-141.48;100.00;69781.59;5147161;28;20035;-63
2022/05/03 12:43:08;;;;;;;6.15;5.68;;;;;;;-141.48;100.00;69781.59;5163103;28;20022;-61